Time;durP1;ratioP1;P1;durP2;ratioP2;P2;SDS_P1;SDS_P2;PMS_P1;PMS_P2;Temp;Humidity;BMP_temperature;BMP_pressure;BME280_temperature;BME280_humidity;BME280_pressure;Samples;Min_cycle;Max_cycle;Signal;HPM_P1;HPM_P2
2022/03/16 00:00:46;;;;;;;71.97;40.42;;;4.40;99.90;;;;;;5077555;28;20079;-74
2022/03/16 00:03:12;;;;;;;70.75;39.95;;;4.40;99.90;;;;;;5097016;28;20082;-73
2022/03/16 00:05:37;;;;;;;88.88;44.67;;;4.40;99.90;;;;;;5098133;28;20039;-73
2022/03/16 00:08:03;;;;;;;99.68;45.92;;;4.40;99.90;;;;;;5076083;28;20373;-71
2022/03/16 00:10:29;;;;;;;89.10;44.83;;;4.40;99.90;;;;;;5089656;28;20052;-74
2022/03/16 00:12:54;;;;;;;92.40;45.97;;;4.40;99.90;;;;;;5097908;28;20044;-72
2022/03/16 00:15:20;;;;;;;99.20;46.80;;;4.40;99.90;;;;;;5080426;28;20048;-73
2022/03/16 00:17:45;;;;;;;95.68;46.53;;;4.40;99.90;;;;;;5097499;28;20482;-73
2022/03/16 00:20:11;;;;;;;101.13;47.58;;;4.40;99.90;;;;;;5038962;28;20064;-73
2022/03/16 00:22:41;;;;;;;115.70;49.15;;;4.30;99.90;;;;;;5055355;28;20049;-72
2022/03/16 00:25:07;;;;;;;98.43;46.30;;;4.30;99.90;;;;;;5055684;28;20447;-73
2022/03/16 00:27:33;;;;;;;108.15;49.30;;;4.30;99.90;;;;;;5038999;28;20139;-73
2022/03/16 00:29:59;;;;;;;86.30;45.53;;;4.30;99.90;;;;;;5055224;28;20103;-71
2022/03/16 00:32:25;;;;;;;102.18;47.42;;;4.30;99.90;;;;;;5055286;28;20291;-72
2022/03/16 00:34:50;;;;;;;100.35;47.10;;;4.30;99.90;;;;;;5055326;28;20057;-73
2022/03/16 00:37:16;;;;;;;100.57;46.80;;;4.30;99.90;;;;;;5038036;28;20432;-72
2022/03/16 00:39:41;;;;;;;85.78;42.85;;;4.30;99.90;;;;;;5038124;28;20057;-73
2022/03/16 00:42:07;;;;;;;97.07;44.90;;;4.20;99.90;;;;;;5038495;28;20048;-73
2022/03/16 00:44:35;;;;;;;115.28;48.97;;;4.20;99.90;;;;;;5054482;28;20192;-73
2022/03/16 00:47:02;;;;;;;127.78;51.13;;;4.20;99.90;;;;;;5038111;28;20393;-71
2022/03/16 00:49:27;;;;;;;135.30;54.80;;;4.30;99.90;;;;;;5054984;28;20064;-74
2022/03/16 00:51:53;;;;;;;132.35;53.60;;;4.30;99.90;;;;;;5088591;28;20081;-73
2022/03/16 00:54:19;;;;;;;121.03;52.50;;;4.30;99.90;;;;;;5097094;28;20107;-73
2022/03/16 00:56:44;;;;;;;135.30;54.25;;;4.30;99.90;;;;;;5079045;28;20059;-71
2022/03/16 00:59:10;;;;;;;152.00;60.17;;;4.30;99.90;;;;;;5097219;28;20036;-75
2022/03/16 01:01:36;;;;;;;149.93;58.70;;;4.50;99.90;;;;;;5079604;28;20056;-73
2022/03/16 01:04:02;;;;;;;145.45;57.45;;;4.40;99.90;;;;;;5097283;28;20123;-73
2022/03/16 01:06:28;;;;;;;151.65;58.47;;;4.40;99.90;;;;;;5093363;28;20151;-72
2022/03/16 01:08:53;;;;;;;144.82;56.33;;;4.40;99.90;;;;;;5096238;28;20055;-72
2022/03/16 01:11:19;;;;;;;125.60;53.45;;;4.40;99.90;;;;;;5079541;28;20123;-72
2022/03/16 01:13:45;;;;;;;115.50;51.08;;;4.40;99.90;;;;;;5079193;28;20052;-72
2022/03/16 01:16:10;;;;;;;134.25;53.35;;;4.30;99.90;;;;;;5096781;28;20090;-73
2022/03/16 01:18:39;;;;;;;141.15;54.97;;;4.40;99.90;;;;;;5078886;28;20055;-73
2022/03/16 01:21:05;;;;;;;135.95;56.70;;;4.30;99.90;;;;;;5096826;28;20417;-74
2022/03/16 01:23:31;;;;;;;144.02;55.30;;;4.30;99.90;;;;;;5078777;28;20337;-72
2022/03/16 01:26:00;;;;;;;156.38;56.85;;;4.30;99.90;;;;;;5079262;28;20046;-72
2022/03/16 01:28:25;;;;;;;124.28;52.53;;;4.30;99.90;;;;;;5078835;28;20375;-72
2022/03/16 01:30:51;;;;;;;124.07;51.88;;;4.30;99.90;;;;;;5096570;28;20036;-72
2022/03/16 01:33:16;;;;;;;153.55;53.53;;;4.20;99.90;;;;;;5096461;28;20058;-73
2022/03/16 01:35:42;;;;;;;111.25;48.90;;;4.20;99.90;;;;;;5078422;28;20048;-73
2022/03/16 01:38:07;;;;;;;98.45;45.55;;;4.10;99.90;;;;;;5078285;28;20082;-72
2022/03/16 01:40:33;;;;;;;101.50;46.90;;;4.00;99.90;;;;;;5078304;28;20065;-75
2022/03/16 01:42:59;;;;;;;98.40;45.70;;;4.00;99.90;;;;;;5096788;28;20457;-73
2022/03/16 01:45:24;;;;;;;98.13;45.08;;;3.90;99.90;;;;;;5096284;28;20032;-72
2022/03/16 01:47:50;;;;;;;95.30;44.70;;;3.90;99.90;;;;;;5078586;28;20372;-73
2022/03/16 01:50:15;;;;;;;82.55;42.25;;;3.80;99.90;;;;;;5078274;28;20123;-72
2022/03/16 01:52:41;;;;;;;87.70;42.50;;;3.80;99.90;;;;;;5096141;28;20032;-73
2022/03/16 01:55:07;;;;;;;85.90;41.22;;;3.80;99.90;;;;;;5077596;28;20068;-73
2022/03/16 01:57:34;;;;;;;84.82;43.25;;;3.70;99.90;;;;;;5092096;28;20048;-74
2022/03/16 02:00:06;;;;;;;96.47;45.03;;;3.70;99.90;;;;;;5061346;28;20043;-72
2022/03/16 02:02:33;;;;;;;74.18;38.70;;;3.70;99.90;;;;;;5096123;28;20102;-73
2022/03/16 02:04:58;;;;;;;79.28;41.60;;;3.70;99.90;;;;;;5095868;28;20428;-73
2022/03/16 02:07:24;;;;;;;84.60;43.17;;;3.60;99.90;;;;;;5095365;28;20032;-74
2022/03/16 02:09:52;;;;;;;100.72;44.33;;;3.60;99.90;;;;;;5096133;28;20040;-74
2022/03/16 02:12:17;;;;;;;81.50;42.45;;;3.60;99.90;;;;;;5096041;28;20036;-71
2022/03/16 02:14:43;;;;;;;71.97;39.17;;;3.60;99.90;;;;;;5077967;28;20043;-73
2022/03/16 02:17:08;;;;;;;83.47;42.08;;;3.50;99.90;;;;;;5095867;28;20047;-72
2022/03/16 02:19:34;;;;;;;100.95;44.03;;;3.50;99.90;;;;;;5095491;28;20055;-73
2022/03/16 02:22:02;;;;;;;102.65;45.10;;;3.50;99.90;;;;;;5095991;28;20047;-73
2022/03/16 02:24:31;;;;;;;102.88;44.88;;;3.50;99.90;;;;;;5077643;28;20044;-73
2022/03/16 02:26:57;;;;;;;85.97;43.28;;;3.50;99.90;;;;;;5077552;28;20043;-75
2022/03/16 02:29:23;;;;;;;94.60;45.33;;;3.50;99.90;;;;;;5095722;28;20063;-74
2022/03/16 02:31:52;;;;;;;94.03;47.70;;;3.40;99.90;;;;;;5077616;28;20044;-73
2022/03/16 02:34:18;;;;;;;92.00;47.90;;;3.40;99.90;;;;;;5095337;28;20349;-74
2022/03/16 02:36:43;;;;;;;198.13;91.53;;;3.40;99.90;;;;;;5095082;28;20055;-72
2022/03/16 02:39:09;;;;;;;146.70;67.40;;;3.40;99.90;;;;;;5061085;28;20448;-72
2022/03/16 02:41:34;;;;;;;179.15;70.05;;;3.50;99.90;;;;;;5060988;28;20190;-72
2022/03/16 02:44:00;;;;;;;205.48;81.35;;;3.00;99.90;;;;;;5077336;28;20157;-74
2022/03/16 02:46:26;;;;;;;162.63;68.90;;;3.50;99.90;;;;;;5095470;28;20108;-73
2022/03/16 02:48:51;;;;;;;142.15;70.65;;;3.50;99.90;;;;;;5092223;28;20055;-73
2022/03/16 02:51:17;;;;;;;210.90;110.93;;;3.50;99.90;;;;;;5095095;28;20419;-74
2022/03/16 02:53:42;;;;;;;147.35;68.40;;;3.40;99.90;;;;;;5095269;28;20411;-73
2022/03/16 02:56:08;;;;;;;172.30;82.20;;;3.40;99.90;;;;;;5094908;28;20052;-75
2022/03/16 02:58:34;;;;;;;152.50;78.07;;;3.40;99.90;;;;;;5094913;28;20368;-72
2022/03/16 03:00:59;;;;;;;174.98;96.50;;;3.50;99.90;;;;;;5077282;28;20069;-73
2022/03/16 03:03:25;;;;;;;138.13;72.93;;;3.40;99.90;;;;;;5094664;28;20044;-73
2022/03/16 03:05:54;;;;;;;134.63;66.68;;;3.30;99.90;;;;;;5095020;28;20079;-73
2022/03/16 03:08:20;;;;;;;145.65;69.95;;;3.40;99.90;;;;;;5094840;28;20376;-73
2022/03/16 03:10:45;;;;;;;129.20;64.40;;;3.40;99.90;;;;;;5077595;28;20048;-72
2022/03/16 03:13:12;;;;;;;117.45;57.85;;;3.40;99.90;;;;;;5077110;28;20104;-73
2022/03/16 03:15:42;;;;;;;154.07;78.72;;;3.40;99.90;;;;;;5094995;28;20044;-72
2022/03/16 03:18:07;;;;;;;143.48;72.38;;;3.40;99.90;;;;;;5094847;28;20040;-73
2022/03/16 03:20:33;;;;;;;150.13;66.75;;;3.30;99.90;;;;;;5077412;28;20333;-74
2022/03/16 03:22:59;;;;;;;127.47;58.50;;;3.40;99.90;;;;;;5077352;28;20055;-72
2022/03/16 03:25:24;;;;;;;145.23;70.35;;;3.40;99.90;;;;;;5060677;28;20457;-73
2022/03/16 03:27:50;;;;;;;141.65;61.63;;;3.40;99.90;;;;;;5076899;28;20372;-74
2022/03/16 03:30:15;;;;;;;141.30;56.13;;;3.30;99.90;;;;;;5094444;28;20048;-73
2022/03/16 03:32:41;;;;;;;154.60;52.72;;;3.30;99.90;;;;;;5059930;28;20051;-73
2022/03/16 03:35:08;;;;;;;98.63;44.88;;;3.30;99.90;;;;;;5094639;28;20040;-73
2022/03/16 03:37:36;;;;;;;92.68;42.53;;;3.30;99.90;;;;;;5094685;28;20036;-74
2022/03/16 03:40:02;;;;;;;137.73;44.60;;;3.20;99.90;;;;;;5094993;28;20028;-71
2022/03/16 03:42:28;;;;;;;113.70;43.67;;;3.20;99.90;;;;;;5094708;28;20044;-72
2022/03/16 03:44:54;;;;;;;112.07;41.45;;;3.20;99.90;;;;;;5094344;28;20048;-72
2022/03/16 03:47:19;;;;;;;125.90;45.00;;;3.20;99.90;;;;;;5077334;28;20052;-73
2022/03/16 03:49:45;;;;;;;152.00;44.42;;;3.70;99.90;;;;;;5076859;28;20044;-72
2022/03/16 03:52:11;;;;;;;172.25;48.60;;;3.20;99.90;;;;;;5094493;28;20035;-73
2022/03/16 03:54:36;;;;;;;278.85;54.83;;;3.20;99.90;;;;;;5094430;28;20164;-73
2022/03/16 03:57:03;;;;;;;392.73;60.17;;;3.20;99.90;;;;;;5075943;28;20060;-73
2022/03/16 03:59:28;;;;;;;388.48;63.90;;;3.20;99.90;;;;;;5093479;28;20036;-73
2022/03/16 04:01:54;;;;;;;461.73;68.47;;;3.30;99.90;;;;;;5094507;28;20047;-73
2022/03/16 04:04:20;;;;;;;463.52;66.13;;;3.30;99.90;;;;;;5094482;28;20369;-72
2022/03/16 04:06:45;;;;;;;438.75;59.40;;;3.50;99.90;;;;;;5076818;28;20055;-72
2022/03/16 04:09:11;;;;;;;325.92;53.50;;;3.40;99.90;;;;;;5094703;28;20051;-74
2022/03/16 04:11:40;;;;;;;417.95;64.53;;;3.40;99.90;;;;;;5093165;28;20048;-74
2022/03/16 04:14:06;;;;;;;283.05;53.97;;;3.50;99.90;;;;;;5076683;28;20076;-73
2022/03/16 04:16:32;;;;;;;340.25;51.28;;;3.50;99.90;;;;;;5094289;28;20362;-73
2022/03/16 04:18:58;;;;;;;450.35;56.80;;;3.60;99.90;;;;;;5094529;28;20048;-72
2022/03/16 04:21:24;;;;;;;466.42;58.30;;;3.50;99.90;;;;;;5097905;28;20039;-73
2022/03/16 04:23:49;;;;;;;398.02;59.47;;;3.40;99.90;;;;;;5080028;28;20047;-75
2022/03/16 04:26:16;;;;;;;281.98;50.60;;;3.40;99.90;;;;;;5098106;28;20066;-74
2022/03/16 04:28:42;;;;;;;324.52;49.92;;;3.40;99.90;;;;;;5062529;28;20039;-72
2022/03/16 04:31:07;;;;;;;257.65;51.83;;;3.40;99.90;;;;;;5097559;28;20070;-73
2022/03/16 04:33:33;;;;;;;274.60;49.22;;;3.30;99.90;;;;;;5078836;28;20138;-73
2022/03/16 04:35:59;;;;;;;447.65;60.00;;;3.30;99.90;;;;;;5062929;28;20043;-72
2022/03/16 04:38:24;;;;;;;365.45;55.58;;;3.30;99.90;;;;;;5097737;28;20044;-72
2022/03/16 04:40:50;;;;;;;233.63;48.13;;;3.30;99.90;;;;;;5097678;28;20035;-72
2022/03/16 04:43:15;;;;;;;260.65;49.13;;;3.40;99.90;;;;;;5097562;28;20505;-73
2022/03/16 04:45:41;;;;;;;355.90;56.00;;;3.20;99.90;;;;;;5079700;28;20397;-74
2022/03/16 04:48:08;;;;;;;399.40;57.63;;;3.30;99.90;;;;;;5097398;28;20040;-73
2022/03/16 04:50:43;;;;;;;236.95;47.53;;;3.20;99.90;;;;;;5079692;28;20456;-73
2022/03/16 04:53:08;;;;;;;219.13;49.30;;;3.20;99.90;;;;;;5062814;28;20047;-73
2022/03/16 04:55:37;;;;;;;229.77;50.30;;;3.20;99.90;;;;;;5079128;28;20048;-73
2022/03/16 04:58:04;;;;;;;235.13;53.58;;;3.20;99.90;;;;;;5082870;28;20078;-72
2022/03/16 05:00:29;;;;;;;201.95;51.50;;;3.20;99.90;;;;;;5101490;28;20036;-73
2022/03/16 05:02:55;;;;;;;170.98;47.35;;;3.20;99.90;;;;;;5099101;28;20048;-73
2022/03/16 05:05:20;;;;;;;146.80;46.55;;;3.20;99.90;;;;;;5096805;28;20044;-74
2022/03/16 05:07:46;;;;;;;122.45;45.33;;;3.20;99.90;;;;;;5096485;28;20028;-72
2022/03/16 05:10:12;;;;;;;136.15;46.30;;;3.10;99.90;;;;;;5079220;28;20059;-73
2022/03/16 05:12:40;;;;;;;142.57;46.10;;;3.50;99.90;;;;;;5079339;28;20056;-72
2022/03/16 05:15:08;;;;;;;139.07;44.75;;;3.10;99.90;;;;;;5096317;28;20048;-73
2022/03/16 05:17:40;;;;;;;97.47;42.22;;;3.10;99.90;;;;;;5096648;28;20069;-74
2022/03/16 05:20:07;;;;;;;124.18;44.63;;;3.50;99.90;;;;;;5078725;28;20062;-72
2022/03/16 05:22:40;;;;;;;151.80;47.25;;;3.10;99.90;;;;;;5096749;28;20039;-73
2022/03/16 05:25:07;;;;;;;164.77;45.85;;;3.10;99.90;;;;;;5072535;28;20043;-72
2022/03/16 05:27:32;;;;;;;147.25;47.80;;;3.10;99.90;;;;;;5052921;28;20457;-73
2022/03/16 05:29:58;;;;;;;102.00;44.28;;;3.20;99.90;;;;;;5096550;28;20032;-74
2022/03/16 05:32:23;;;;;;;117.60;46.28;;;3.20;99.90;;;;;;5096553;28;20051;-74
2022/03/16 05:34:49;;;;;;;107.20;46.40;;;3.20;99.90;;;;;;5096852;28;20035;-71
2022/03/16 05:37:14;;;;;;;102.57;45.38;;;3.10;99.90;;;;;;5095979;28;20043;-70
2022/03/16 05:39:40;;;;;;;101.97;44.55;;;3.20;99.90;;;;;;5095866;28;20125;-71
2022/03/16 05:42:06;;;;;;;104.90;45.25;;;3.20;99.90;;;;;;5096261;28;20123;-72
2022/03/16 05:44:31;;;;;;;99.72;44.08;;;3.20;99.90;;;;;;5078134;28;20140;-71
2022/03/16 05:46:57;;;;;;;80.43;39.88;;;3.20;99.90;;;;;;5078520;28;20054;-73
2022/03/16 05:49:25;;;;;;;109.82;44.22;;;3.20;99.90;;;;;;5096189;28;20059;-74
2022/03/16 05:51:51;;;;;;;79.03;41.15;;;3.20;99.90;;;;;;5096349;28;20051;-72
2022/03/16 05:54:17;;;;;;;91.13;40.28;;;3.20;99.90;;;;;;5095796;28;20071;-72
2022/03/16 05:56:42;;;;;;;85.97;41.90;;;3.20;99.90;;;;;;5061058;28;20354;-72
2022/03/16 05:59:08;;;;;;;91.00;41.92;;;3.20;99.90;;;;;;5095996;28;20372;-72
2022/03/16 06:01:34;;;;;;;90.97;42.53;;;3.20;99.90;;;;;;5095917;28;20514;-71
2022/03/16 06:03:59;;;;;;;96.95;43.63;;;3.30;99.90;;;;;;5078135;28;20044;-74
2022/03/16 06:06:26;;;;;;;89.82;43.50;;;3.40;99.90;;;;;;5095609;28;20077;-71
2022/03/16 06:08:52;;;;;;;98.97;43.42;;;3.40;99.90;;;;;;5077652;28;20052;-72
2022/03/16 06:11:18;;;;;;;101.68;42.63;;;3.40;99.90;;;;;;5095676;28;20055;-71
2022/03/16 06:13:43;;;;;;;80.65;42.03;;;3.40;99.90;;;;;;5077725;28;20047;-73
2022/03/16 06:16:09;;;;;;;90.82;43.55;;;3.40;99.90;;;;;;5060958;28;20055;-74
2022/03/16 06:18:34;;;;;;;116.25;45.45;;;3.50;99.90;;;;;;5095889;28;20396;-72
2022/03/16 06:21:00;;;;;;;121.38;47.80;;;3.50;99.90;;;;;;5095619;28;20357;-72
2022/03/16 06:23:26;;;;;;;129.95;42.95;;;3.60;99.90;;;;;;5095475;28;20467;-75
2022/03/16 06:25:51;;;;;;;152.98;41.75;;;3.60;99.90;;;;;;5077339;28;20130;-72
2022/03/16 06:28:17;;;;;;;132.20;43.15;;;3.60;99.90;;;;;;5095259;28;20046;-72
2022/03/16 06:30:42;;;;;;;115.10;38.88;;;3.60;99.90;;;;;;5093894;28;20452;-74
2022/03/16 06:33:08;;;;;;;102.05;34.45;;;3.60;99.90;;;;;;5092238;28;20093;-71
2022/03/16 06:35:34;;;;;;;108.63;36.60;;;3.60;99.90;;;;;;5085907;28;20094;-72
2022/03/16 06:37:59;;;;;;;77.05;34.10;;;3.60;99.90;;;;;;5074773;28;20033;-75
2022/03/16 06:40:25;;;;;;;115.13;39.88;;;3.60;99.90;;;;;;5074884;28;20575;-73
2022/03/16 06:42:58;;;;;;;70.32;37.58;;;3.60;99.90;;;;;;5076508;28;20124;-71
2022/03/16 06:45:25;;;;;;;59.60;35.28;;;3.60;99.90;;;;;;5094768;28;20081;-75
2022/03/16 06:47:54;;;;;;;75.80;38.60;;;3.60;99.90;;;;;;5094348;28;20064;-72
2022/03/16 06:50:20;;;;;;;92.18;38.60;;;3.60;99.90;;;;;;5076756;28;20119;-73
2022/03/16 06:52:47;;;;;;;100.40;40.60;;;3.70;99.90;;;;;;5094628;28;20179;-76
2022/03/16 06:55:13;;;;;;;94.07;39.85;;;3.70;99.90;;;;;;5075347;28;20113;-73
2022/03/16 06:57:39;;;;;;;92.07;40.70;;;3.80;99.90;;;;;;5076200;28;20040;-75
2022/03/16 07:00:07;;;;;;;75.15;39.55;;;3.80;99.90;;;;;;5061575;28;20486;-74
2022/03/16 07:02:53;;;;;;;94.05;41.58;;;3.90;99.90;;;;;;5095892;28;20482;-74
2022/03/16 07:05:23;;;;;;;93.28;43.33;;;4.00;99.90;;;;;;5087354;28;20028;-74
2022/03/16 07:07:49;;;;;;;75.70;38.75;;;4.00;99.90;;;;;;5094506;28;20044;-74
2022/03/16 07:10:15;;;;;;;92.25;41.40;;;4.10;99.90;;;;;;5095151;28;20070;-74
2022/03/16 07:12:41;;;;;;;82.53;41.88;;;4.20;99.90;;;;;;5076867;28;20106;-73
2022/03/16 07:15:07;;;;;;;86.38;41.50;;;4.30;99.90;;;;;;5077131;28;20122;-73
2022/03/16 07:17:33;;;;;;;92.38;43.03;;;4.30;99.90;;;;;;5094221;28;20052;-75
2022/03/16 07:19:58;;;;;;;85.20;41.85;;;4.40;99.90;;;;;;5094522;28;20119;-74
2022/03/16 07:22:27;;;;;;;84.85;42.92;;;4.50;99.90;;;;;;5094519;28;20044;-74
2022/03/16 07:24:52;;;;;;;100.70;44.25;;;4.50;99.90;;;;;;5077226;28;20043;-73
2022/03/16 07:27:18;;;;;;;82.55;41.20;;;4.60;99.90;;;;;;5094519;28;20036;-73
2022/03/16 07:29:43;;;;;;;77.80;39.72;;;4.60;99.90;;;;;;5094733;28;20364;-74
2022/03/16 07:32:09;;;;;;;91.38;41.50;;;4.70;99.90;;;;;;5076318;28;20127;-74
2022/03/16 07:34:34;;;;;;;78.05;41.35;;;4.70;99.90;;;;;;5076353;28;20086;-71
2022/03/16 07:37:00;;;;;;;86.07;41.72;;;4.70;99.90;;;;;;5094248;28;20048;-74
2022/03/16 07:39:25;;;;;;;71.82;39.55;;;4.80;99.90;;;;;;5093118;28;20040;-75
2022/03/16 07:41:51;;;;;;;82.13;41.75;;;4.90;99.90;;;;;;5076801;28;20051;-74
2022/03/16 07:44:16;;;;;;;69.88;40.22;;;5.00;99.90;;;;;;5094454;28;20040;-73
2022/03/16 07:46:42;;;;;;;74.18;40.70;;;5.30;99.90;;;;;;5093988;28;20055;-75
2022/03/16 07:49:08;;;;;;;70.80;39.88;;;5.20;99.90;;;;;;5075888;28;20569;-74
2022/03/16 07:51:33;;;;;;;71.65;39.50;;;5.30;99.90;;;;;;5093600;28;20356;-74
2022/03/16 07:53:59;;;;;;;67.93;40.20;;;5.40;99.90;;;;;;5094644;28;20127;-73
2022/03/16 07:56:24;;;;;;;71.90;39.22;;;5.40;99.90;;;;;;5063344;28;20089;-74
2022/03/16 07:58:51;;;;;;;69.25;38.90;;;5.50;99.90;;;;;;5096499;28;20490;-75
2022/03/16 08:01:17;;;;;;;67.72;38.28;;;5.60;99.90;;;;;;5097595;28;20040;-74
2022/03/16 08:03:42;;;;;;;66.55;40.78;;;5.70;99.90;;;;;;5079886;28;20054;-75
2022/03/16 08:06:08;;;;;;;68.63;38.67;;;5.80;99.90;;;;;;5097824;28;20040;-74
2022/03/16 08:08:39;;;;;;;65.40;38.10;;;6.00;99.90;;;;;;5097835;28;20062;-73
2022/03/16 08:11:07;;;;;;;62.75;37.22;;;6.10;99.90;;;;;;5097642;28;20353;-74
2022/03/16 08:13:36;;;;;;;60.75;38.55;;;6.20;99.90;;;;;;5098064;28;20044;-73
2022/03/16 08:16:02;;;;;;;60.35;37.20;;;6.30;99.90;;;;;;5097475;28;20093;-73
2022/03/16 08:18:28;;;;;;;63.20;39.58;;;6.30;99.90;;;;;;5079753;28;20048;-73
2022/03/16 08:20:56;;;;;;;57.15;36.92;;;6.40;99.90;;;;;;5097601;28;20051;-78
2022/03/16 08:23:22;;;;;;;59.75;37.65;;;6.50;99.90;;;;;;5093332;28;20044;-75
2022/03/16 08:25:48;;;;;;;63.15;37.83;;;6.70;99.90;;;;;;5097370;28;20059;-73
2022/03/16 08:28:14;;;;;;;65.28;38.40;;;6.80;99.90;;;;;;5097568;28;20066;-74
2022/03/16 08:30:43;;;;;;;51.97;34.25;;;7.00;99.90;;;;;;5079388;28;20453;-73
2022/03/16 08:33:09;;;;;;;49.50;33.70;;;7.00;99.90;;;;;;5097396;28;20044;-73
2022/03/16 08:35:34;;;;;;;55.10;34.33;;;7.10;99.90;;;;;;5097181;28;20127;-77
2022/03/16 08:38:00;;;;;;;53.55;34.35;;;7.10;99.90;;;;;;5097321;28;20050;-74
2022/03/16 08:40:25;;;;;;;56.88;36.00;;;7.20;99.90;;;;;;5094022;28;20172;-73
2022/03/16 08:42:52;;;;;;;48.58;33.35;;;7.20;99.90;;;;;;5094609;28;20097;-72
2022/03/16 08:45:19;;;;;;;62.55;36.47;;;7.30;99.90;;;;;;5097151;28;20043;-75
2022/03/16 08:47:45;;;;;;;57.70;36.85;;;7.50;99.90;;;;;;5079096;28;20424;-73
2022/03/16 08:50:10;;;;;;;53.45;34.83;;;7.60;99.90;;;;;;5096671;28;20075;-74
2022/03/16 08:52:36;;;;;;;61.50;35.42;;;7.70;99.90;;;;;;5096875;28;20039;-73
2022/03/16 08:55:02;;;;;;;57.63;33.83;;;7.80;99.90;;;;;;5062668;28;20056;-71
2022/03/16 08:57:28;;;;;;;54.40;34.70;;;8.00;99.90;;;;;;5095598;28;20047;-71
2022/03/16 08:59:55;;;;;;;52.53;34.88;;;8.10;99.90;;;;;;5095981;28;20483;-72
2022/03/16 09:02:21;;;;;;;50.53;34.40;;;8.20;99.90;;;;;;5061771;28;20048;-70
2022/03/16 09:04:47;;;;;;;51.20;34.60;;;8.40;99.90;;;;;;5092880;28;20097;-73
2022/03/16 09:07:12;;;;;;;44.97;32.42;;;8.50;99.90;;;;;;5096912;28;20083;-71
2022/03/16 09:09:39;;;;;;;45.83;32.70;;;8.60;99.90;;;;;;5096791;28;20086;-73
2022/03/16 09:12:05;;;;;;;48.47;30.88;;;8.70;99.90;;;;;;5097076;28;20036;-73
2022/03/16 09:14:31;;;;;;;46.42;31.20;;;8.80;99.90;;;;;;5096583;28;20125;-75
2022/03/16 09:16:57;;;;;;;46.60;30.15;;;8.90;99.90;;;;;;5096252;28;20102;-73
2022/03/16 09:19:22;;;;;;;45.97;29.48;;;9.00;99.90;;;;;;5062176;28;20055;-70
2022/03/16 09:21:49;;;;;;;44.55;29.48;;;9.10;99.90;;;;;;5096568;28;20048;-72
2022/03/16 09:24:16;;;;;;;42.72;30.80;;;9.40;99.90;;;;;;5095688;28;20051;-71
2022/03/16 09:26:42;;;;;;;44.10;29.98;;;9.20;99.90;;;;;;5096785;28;20037;-73
2022/03/16 09:29:09;;;;;;;40.40;29.33;;;9.50;99.90;;;;;;5096706;28;20040;-74
2022/03/16 09:31:36;;;;;;;44.72;30.35;;;9.40;99.90;;;;;;5079443;28;20047;-73
2022/03/16 09:34:05;;;;;;;41.90;28.77;;;9.50;99.90;;;;;;5096425;28;20044;-71
2022/03/16 09:36:31;;;;;;;46.78;29.65;;;9.50;99.90;;;;;;5078602;28;20054;-72
2022/03/16 09:38:57;;;;;;;47.33;29.35;;;9.60;99.90;;;;;;5095976;28;20087;-75
2022/03/16 09:41:23;;;;;;;38.13;26.58;;;9.80;99.90;;;;;;5096189;28;20087;-73
2022/03/16 09:43:50;;;;;;;40.22;26.55;;;10.10;99.90;;;;;;5078395;28;20044;-73
2022/03/16 09:46:21;;;;;;;37.95;25.25;;;10.20;99.90;;;;;;5095672;28;20044;-73
2022/03/16 09:48:46;;;;;;;37.10;22.98;;;10.30;99.90;;;;;;5096226;28;20039;-73
2022/03/16 09:51:15;;;;;;;31.52;21.67;;;10.50;99.90;;;;;;5096247;28;20047;-74
2022/03/16 09:53:40;;;;;;;30.23;21.25;;;10.60;99.90;;;;;;5096180;28;20051;-73
2022/03/16 09:56:06;;;;;;;32.38;19.65;;;10.60;99.90;;;;;;5077579;28;20048;-74
2022/03/16 09:58:32;;;;;;;28.92;19.73;;;10.70;99.90;;;;;;5095939;28;20048;-74
2022/03/16 10:00:58;;;;;;;29.58;19.85;;;10.80;99.90;;;;;;5077850;28;20396;-73
2022/03/16 10:03:28;;;;;;;24.35;17.52;;;10.90;99.90;;;;;;5077817;28;20051;-73
2022/03/16 10:05:55;;;;;;;22.75;16.90;;;11.10;99.90;;;;;;5096023;28;20468;-73
2022/03/16 10:08:28;;;;;;;23.27;16.10;;;11.20;99.90;;;;;;5095985;28;20036;-72
2022/03/16 10:14:04;;;;;;;26.98;17.15;;;11.30;99.90;;;;;;5095740;28;20281;-73
2022/03/16 10:17:43;;;;;;;23.08;15.65;;;11.30;99.90;;;;;;5094831;28;20044;-73
2022/03/16 10:19:19;;;;;;;24.30;15.98;;;11.50;99.90;;;;;;5095085;28;20146;-73
2022/03/16 10:21:57;;;;;;;20.25;13.68;;;11.60;99.90;;;;;;5095470;28;20051;-73
2022/03/16 10:24:29;;;;;;;20.50;12.70;;;11.70;99.90;;;;;;5095708;28;20040;-73
2022/03/16 10:26:58;;;;;;;19.70;12.93;;;11.70;99.90;;;;;;5095666;28;20047;-72
2022/03/16 10:29:26;;;;;;;17.23;11.82;;;11.80;99.90;;;;;;5095715;28;20175;-73
2022/03/16 10:32:03;;;;;;;18.60;12.18;;;11.90;99.90;;;;;;5077428;28;20044;-76
2022/03/16 10:34:29;;;;;;;17.00;11.18;;;12.00;99.90;;;;;;5095298;28;20047;-73
2022/03/16 10:36:59;;;;;;;17.15;10.98;;;12.00;99.90;;;;;;5095169;28;20426;-74
2022/03/16 10:39:37;;;;;;;15.65;11.00;;;12.00;99.90;;;;;;5095431;28;20055;-73
2022/03/16 10:48:00;;;;;;;18.27;12.18;;;12.10;99.90;;;;;;5076692;28;20087;-73
2022/03/16 10:50:27;;;;;;;16.90;11.70;;;12.10;99.90;;;;;;5094562;28;20052;-73
2022/03/16 10:52:54;;;;;;;17.77;12.43;;;12.20;99.90;;;;;;5095440;28;20072;-71
2022/03/16 10:55:20;;;;;;;20.10;12.70;;;12.20;99.90;;;;;;5094630;28;20468;-73
2022/03/16 10:57:50;;;;;;;17.95;12.88;;;12.30;99.90;;;;;;5094892;28;20044;-73
2022/03/16 11:00:17;;;;;;;18.33;13.13;;;12.40;99.90;;;;;;5095068;28;20112;-73
2022/03/16 11:02:45;;;;;;;19.65;13.32;;;12.40;99.90;;;;;;5077000;28;20032;-73
2022/03/16 11:05:11;;;;;;;19.52;13.52;;;12.40;99.90;;;;;;5094755;28;20076;-73
2022/03/16 11:07:38;;;;;;;25.67;15.27;;;12.50;99.90;;;;;;5095355;28;20044;-73
2022/03/16 11:10:06;;;;;;;21.70;14.02;;;12.60;99.90;;;;;;5095116;28;20475;-73
2022/03/16 11:15:17;;;;;;;19.95;14.38;;;13.00;99.90;;;;;;5094389;28;20477;-73
2022/03/16 11:17:43;;;;;;;22.60;14.13;;;13.00;99.90;;;;;;5072806;28;20048;-73
2022/03/16 11:20:10;;;;;;;19.75;14.15;;;13.10;99.90;;;;;;5074495;28;20048;-72
2022/03/16 11:25:46;;;;;;;21.40;13.68;;;13.30;99.90;;;;;;5056798;28;20123;-73
2022/03/16 11:28:16;;;;;;;17.35;13.32;;;13.20;99.90;;;;;;5075428;28;20476;-75
2022/03/16 11:30:43;;;;;;;23.73;13.90;;;13.30;99.90;;;;;;5078617;28;20085;-74
2022/03/16 11:33:12;;;;;;;21.58;14.23;;;13.30;99.90;;;;;;5078577;28;20040;-73
2022/03/16 11:35:50;;;;;;;28.13;14.32;;;13.40;99.90;;;;;;5078415;28;20036;-73
2022/03/16 11:38:16;;;;;;;20.25;13.90;;;13.40;99.90;;;;;;5060469;28;20040;-72
2022/03/16 11:40:49;;;;;;;22.63;13.75;;;13.40;99.90;;;;;;5078716;28;20097;-73
2022/03/16 11:43:17;;;;;;;20.38;14.10;;;13.60;99.90;;;;;;5061436;28;20149;-72
2022/03/16 11:45:46;;;;;;;19.80;12.45;;;13.70;99.90;;;;;;5078252;28;20045;-74
2022/03/16 11:48:33;;;;;;;18.05;11.77;;;13.80;99.90;;;;;;5078163;28;20041;-73
2022/03/16 11:51:16;;;;;;;20.30;12.52;;;13.80;99.90;;;;;;5060346;28;20040;-72
2022/03/16 11:53:58;;;;;;;18.23;11.65;;;14.00;99.90;;;;;;5077933;28;20048;-73
2022/03/16 11:56:39;;;;;;;21.90;12.30;;;14.00;99.90;;;;;;5077973;28;20071;-73
2022/03/16 11:59:40;;;;;;;20.58;12.25;;;14.00;99.90;;;;;;5077901;28;20401;-74
2022/03/16 12:02:12;;;;;;;19.92;12.85;;;14.20;99.90;;;;;;5064067;28;20129;-73
2022/03/16 12:04:46;;;;;;;17.40;11.95;;;14.20;99.90;;;;;;5090696;28;20054;-74
2022/03/16 12:07:22;;;;;;;18.25;11.57;;;14.30;99.90;;;;;;5098227;28;20100;-73
2022/03/16 12:09:52;;;;;;;20.10;12.23;;;14.30;99.90;;;;;;5098069;28;20040;-74
2022/03/16 12:15:19;;;;;;;22.85;13.15;;;14.20;99.90;;;;;;5098085;28;20475;-74
2022/03/16 12:17:54;;;;;;;20.45;12.70;;;14.20;99.90;;;;;;5097418;28;20047;-73
2022/03/16 12:20:53;;;;;;;19.60;11.65;;;14.30;99.90;;;;;;5080147;28;20048;-73
2022/03/16 12:23:58;;;;;;;19.83;11.88;;;14.30;99.90;;;;;;5080253;28;20140;-73
2022/03/16 12:26:28;;;;;;;19.48;12.05;;;14.30;99.90;;;;;;5097869;28;20044;-72
2022/03/16 12:29:16;;;;;;;20.33;12.77;;;14.20;99.90;;;;;;5097724;28;20043;-72
2022/03/16 12:31:42;;;;;;;19.50;12.80;;;14.10;99.90;;;;;;5079901;28;20119;-73
2022/03/16 12:34:07;;;;;;;18.67;12.77;;;14.10;99.90;;;;;;5097733;28;20471;-73
2022/03/16 12:36:35;;;;;;;19.33;12.70;;;14.20;99.90;;;;;;5079923;28;20140;-74
2022/03/16 12:39:05;;;;;;;20.13;12.68;;;14.30;99.90;;;;;;5079665;28;20044;-74
2022/03/16 12:44:17;;;;;;;19.52;12.73;;;14.30;99.90;;;;;;5097542;28;20048;-72
2022/03/16 12:47:07;;;;;;;17.75;12.15;;;14.30;99.90;;;;;;5097298;28;20036;-75
2022/03/16 12:49:43;;;;;;;19.30;12.95;;;14.30;99.90;;;;;;5095482;28;20040;-74
2022/03/16 12:52:10;;;;;;;17.73;11.95;;;14.30;99.90;;;;;;5094633;28;20036;-72